Time;durP1;ratioP1;P1;durP2;ratioP2;P2;SDS_P1;SDS_P2;PMS_P1;PMS_P2;Temp;Humidity;BMP_temperature;BMP_pressure;BME280_temperature;BME280_humidity;BME280_pressure;Samples;Min_cycle;Max_cycle;Signal;HPM_P1;HPM_P2
2022/01/16 00:00:40;;;;;;;;;;;;;;;;;;;;;
2022/01/16 00:06:24;;;;;;;72.45;26.65;;;2.00;99.90;;;;;;4813595;28;3017645;-83
2022/01/16 00:09:16;;;;;;;81.80;30.93;;;1.80;99.90;;;;;;4923206;28;134117;-84
2022/01/16 00:11:43;;;;;;;80.25;29.13;;;1.90;99.90;;;;;;4964077;28;20059;-83
2022/01/16 00:14:12;;;;;;;92.65;29.40;;;1.90;99.90;;;;;;4942648;28;269243;-82
2022/01/16 00:16:39;;;;;;;78.63;28.83;;;2.00;99.90;;;;;;4956647;28;20055;-83
2022/01/16 00:19:14;;;;;;;76.78;28.13;;;2.00;99.90;;;;;;4848020;28;2985357;-84
2022/01/16 00:22:05;;;;;;;72.57;26.13;;;2.00;99.90;;;;;;4962522;28;20194;-83
2022/01/16 00:24:29;;;;;;;72.38;27.52;;;1.90;99.90;;;;;;4945353;28;270864;-84
2022/01/16 00:26:56;;;;;;;73.47;27.48;;;1.90;99.90;;;;;;4965543;28;20062;-84
2022/01/16 00:29:22;;;;;;;73.18;26.40;;;1.80;99.90;;;;;;4951373;28;248985;-83
2022/01/16 00:31:51;;;;;;;73.55;26.40;;;1.80;99.90;;;;;;4960196;28;20050;-83
2022/01/16 00:34:26;;;;;;;72.03;27.83;;;1.80;99.90;;;;;;4942964;28;151502;-82
2022/01/16 00:37:01;;;;;;;70.60;26.15;;;1.80;99.90;;;;;;4966410;28;20488;-83
2022/01/16 00:39:29;;;;;;;72.25;26.83;;;1.80;99.90;;;;;;4941915;28;218543;-82
2022/01/16 00:41:55;;;;;;;75.45;28.58;;;1.80;99.90;;;;;;4965348;28;20060;-83
2022/01/16 00:44:22;;;;;;;65.78;25.58;;;1.80;99.90;;;;;;4942645;28;284544;-83
2022/01/16 00:46:59;;;;;;;76.88;27.98;;;1.80;99.90;;;;;;4991436;28;20059;-83
2022/01/16 00:49:25;;;;;;;68.22;27.73;;;1.70;99.90;;;;;;5007271;28;106518;-82
2022/01/16 00:52:20;;;;;;;70.20;27.08;;;1.80;99.90;;;;;;5033862;28;20537;-83
2022/01/16 00:54:55;;;;;;;79.55;28.15;;;1.70;99.90;;;;;;4904602;28;2966259;-83
2022/01/16 00:57:21;;;;;;;75.78;28.67;;;1.70;99.90;;;;;;5031384;28;20057;-84
2022/01/16 00:59:49;;;;;;;78.65;28.42;;;1.70;99.90;;;;;;5019949;28;45731;-83
2022/01/16 01:02:15;;;;;;;81.57;30.58;;;1.70;99.90;;;;;;5010799;28;20050;-84
2022/01/16 01:04:47;;;;;;;83.18;30.25;;;1.70;99.90;;;;;;4985859;28;177912;-83
2022/01/16 01:07:13;;;;;;;87.53;30.90;;;1.70;99.90;;;;;;5008847;28;20058;-83
2022/01/16 01:09:40;;;;;;;80.88;28.75;;;1.70;99.90;;;;;;5019311;28;76552;-83
2022/01/16 01:12:27;;;;;;;97.03;33.05;;;1.70;99.90;;;;;;5013148;28;20056;-83
2022/01/16 01:15:07;;;;;;;91.05;31.95;;;1.70;99.90;;;;;;5000706;28;127279;-83
2022/01/16 01:17:46;;;;;;;88.78;32.40;;;1.70;99.90;;;;;;5012982;28;20057;-82
2022/01/16 01:20:18;;;;;;;91.60;32.50;;;1.70;99.90;;;;;;5015489;28;164874;-83
2022/01/16 01:22:48;;;;;;;96.20;31.98;;;1.70;99.90;;;;;;5011698;28;20486;-82
2022/01/16 01:25:22;;;;;;;102.60;35.07;;;1.70;99.90;;;;;;4993095;28;237348;-82
2022/01/16 01:27:48;;;;;;;100.50;32.83;;;1.70;99.90;;;;;;5029723;28;20124;-82
2022/01/16 01:30:19;;;;;;;94.85;32.13;;;1.70;99.90;;;;;;4902069;28;3008332;-84
2022/01/16 01:32:47;;;;;;;92.10;32.55;;;1.70;99.90;;;;;;5010133;28;20060;-83
2022/01/16 01:35:16;;;;;;;94.30;33.58;;;1.70;99.90;;;;;;4998004;28;207243;-82
2022/01/16 01:37:43;;;;;;;79.57;30.02;;;1.70;99.90;;;;;;5030534;28;20094;-82
2022/01/16 01:40:15;;;;;;;89.40;33.40;;;1.70;99.90;;;;;;4987389;28;156126;-83
2022/01/16 01:43:01;;;;;;;87.97;33.28;;;1.60;99.90;;;;;;5006275;28;20045;-82
2022/01/16 01:51:44;;;;;;;96.20;34.70;;;1.70;99.90;;;;;;4982260;28;20532;-83
2022/01/16 01:54:12;;;;;;;96.43;33.78;;;1.70;99.90;;;;;;4934052;28;200718;-83
2022/01/16 01:56:41;;;;;;;94.25;32.90;;;1.70;99.90;;;;;;4965299;28;20713;-83
2022/01/16 01:59:10;;;;;;;100.97;32.80;;;1.70;99.90;;;;;;4948506;28;262192;-82
2022/01/16 02:01:44;;;;;;;88.28;30.90;;;1.70;99.90;;;;;;4976257;28;20065;-84
2022/01/16 02:04:11;;;;;;;112.47;33.88;;;1.70;99.90;;;;;;4940982;28;211590;-83
2022/01/16 02:06:37;;;;;;;93.38;32.10;;;1.70;99.90;;;;;;4951267;28;20060;-83
2022/01/16 02:09:06;;;;;;;90.97;31.00;;;1.70;99.90;;;;;;4936571;28;223897;-83
2022/01/16 02:11:42;;;;;;;101.70;34.40;;;1.70;99.90;;;;;;4955784;28;20070;-83
2022/01/16 02:28:29;;;;;;;127.53;39.67;;;1.80;99.90;;;;;;4892114;29;20502;-83
2022/01/16 02:36:27;;;;;;;123.30;36.42;;;1.90;99.90;;;;;;4898229;29;20402;-83
2022/01/16 02:39:13;;;;;;;116.40;36.72;;;1.90;99.90;;;;;;4901339;29;134521;-83
2022/01/16 02:41:42;;;;;;;124.85;36.55;;;1.90;99.90;;;;;;4889247;29;20487;-83
2022/01/16 02:44:18;;;;;;;128.38;38.70;;;1.90;99.90;;;;;;4868098;29;257493;-84
2022/01/16 02:46:47;;;;;;;131.00;38.17;;;1.90;99.90;;;;;;4890231;29;20049;-84
2022/01/16 02:49:32;;;;;;;136.52;37.33;;;1.90;99.90;;;;;;4859564;29;252083;-84
2022/01/16 02:52:03;;;;;;;145.35;39.20;;;1.90;99.90;;;;;;4880024;29;20076;-84
2022/01/16 02:54:45;;;;;;;;;;;1.90;99.90;;;;;;4771505;29;2978403;-83
2022/01/16 02:57:37;;;;;;;138.55;37.75;;;1.90;99.90;;;;;;4877747;29;19938;-85
2022/01/16 03:00:14;;;;;;;140.65;37.55;;;2.00;99.90;;;;;;4876518;29;293998;-83
2022/01/16 03:02:51;;;;;;;147.43;39.30;;;1.90;99.90;;;;;;4885281;29;20060;-83
2022/01/16 03:05:26;;;;;;;139.57;38.72;;;1.90;99.90;;;;;;4552719;28;10003748;-83
2022/01/16 03:08:00;;;;;;;132.57;36.65;;;1.90;99.90;;;;;;4963836;28;20042;-83
2022/01/16 03:10:46;;;;;;;147.18;39.05;;;2.00;99.90;;;;;;4912320;28;140303;-83
2022/01/16 03:13:31;;;;;;;140.52;40.35;;;2.00;99.90;;;;;;4946072;28;20059;-83
2022/01/16 03:16:10;;;;;;;151.95;39.17;;;2.00;99.90;;;;;;4914196;28;182597;-84
2022/01/16 03:24:15;;;;;;;130.95;35.15;;;2.10;99.90;;;;;;4858608;28;2991409;-83
2022/01/16 03:26:49;;;;;;;165.95;41.00;;;2.10;99.90;;;;;;4959344;28;20043;-83
2022/01/16 03:29:57;;;;;;;141.18;36.70;;;2.10;99.90;;;;;;4964198;28;228728;-83
2022/01/16 03:32:26;;;;;;;138.77;38.60;;;2.10;99.90;;;;;;4969458;28;20046;-82
2022/01/16 03:34:52;;;;;;;147.15;37.60;;;2.00;99.90;;;;;;4946183;28;108237;-83
2022/01/16 03:37:23;;;;;;;154.07;40.70;;;2.10;99.90;;;;;;4974292;28;20070;-84
2022/01/16 03:39:50;;;;;;;152.80;39.55;;;2.10;99.90;;;;;;4973844;28;206479;-83
2022/01/16 03:42:24;;;;;;;160.85;40.97;;;2.10;99.90;;;;;;5044768;28;20060;-83
2022/01/16 03:45:12;;;;;;;150.52;37.78;;;2.10;99.90;;;;;;5017012;28;114132;-84
2022/01/16 03:47:44;;;;;;;158.77;40.85;;;2.10;99.90;;;;;;5025310;28;20044;-84
2022/01/16 03:50:15;;;;;;;153.93;40.17;;;2.20;99.90;;;;;;5014328;28;93743;-83
2022/01/16 03:52:43;;;;;;;164.68;40.72;;;2.20;99.90;;;;;;5013772;28;20046;-84
2022/01/16 03:55:32;;;;;;;146.68;38.55;;;2.20;99.90;;;;;;5019759;28;91647;-84
2022/01/16 03:58:08;;;;;;;166.13;41.88;;;2.20;99.90;;;;;;4977314;28;20450;-84
2022/01/16 04:00:34;;;;;;;170.32;38.80;;;2.20;99.90;;;;;;4910659;28;265668;-84
2022/01/16 04:03:01;;;;;;;179.68;41.13;;;2.20;99.90;;;;;;4904626;29;20066;-84
2022/01/16 04:05:27;;;;;;;163.38;39.83;;;2.20;99.90;;;;;;4882657;29;109406;-85
2022/01/16 04:07:58;;;;;;;189.73;40.60;;;2.20;99.90;;;;;;4937655;28;20066;-83
2022/01/16 04:10:45;;;;;;;199.98;44.10;;;2.30;99.90;;;;;;4868081;29;195886;-84
2022/01/16 04:13:19;;;;;;;181.38;40.47;;;2.30;99.90;;;;;;4864972;29;20065;-84
2022/01/16 04:16:08;;;;;;;177.68;39.83;;;2.30;99.90;;;;;;4829395;29;256755;-84
2022/01/16 04:18:35;;;;;;;166.13;36.42;;;2.30;99.90;;;;;;4847778;29;20072;-84
2022/01/16 04:21:06;;;;;;;166.88;38.33;;;2.30;99.90;;;;;;4821069;29;20046;-83
2022/01/16 04:23:41;;;;;;;170.88;40.97;;;2.30;99.90;;;;;;4844153;29;20563;-83
2022/01/16 04:26:20;;;;;;;170.73;38.00;;;2.30;99.90;;;;;;4808741;29;20050;-85
2022/01/16 04:28:50;;;;;;;180.50;39.22;;;2.40;99.90;;;;;;4822150;29;254129;-83
2022/01/16 04:31:21;;;;;;;182.60;39.05;;;2.40;99.90;;;;;;4857745;29;20056;-83
2022/01/16 04:33:47;;;;;;;;;;;2.40;99.90;;;;;;4879682;29;205537;-84
2022/01/16 04:36:14;;;;;;;186.52;40.80;;;2.40;99.90;;;;;;4920894;29;19926;-83
2022/01/16 04:38:48;;;;;;;187.77;42.00;;;2.40;99.90;;;;;;4895455;29;221256;-83
2022/01/16 04:44:11;;;;;;;158.35;36.33;;;2.50;99.90;;;;;;4981230;28;28597;-84
2022/01/16 04:46:41;;;;;;;168.18;38.22;;;2.50;99.90;;;;;;5002923;28;20352;-83
2022/01/16 04:49:10;;;;;;;178.18;39.30;;;2.50;99.90;;;;;;5003643;28;71212;-83
2022/01/16 04:51:36;;;;;;;178.98;42.30;;;2.60;99.90;;;;;;5027654;28;20049;-85
2022/01/16 04:54:11;;;;;;;208.75;44.00;;;2.60;99.90;;;;;;5010637;28;45517;-84
2022/01/16 04:56:43;;;;;;;183.05;40.85;;;2.60;99.90;;;;;;5014045;28;20057;-84
2022/01/16 04:59:09;;;;;;;;;;;2.60;99.90;;;;;;4996655;28;267826;-85
2022/01/16 05:01:35;;;;;;;189.48;39.28;;;2.60;99.90;;;;;;5013000;28;20998;-85
2022/01/16 05:04:04;;;;;;;184.40;40.90;;;2.70;99.90;;;;;;5003548;28;143520;-84
2022/01/16 05:06:48;;;;;;;189.68;42.42;;;2.70;99.90;;;;;;5028960;28;20053;-84
2022/01/16 05:09:25;;;;;;;191.35;40.08;;;2.70;99.90;;;;;;5035023;28;118804;-85
2022/01/16 05:11:59;;;;;;;211.32;42.35;;;2.70;99.90;;;;;;5029981;28;20080;-84
2022/01/16 05:17:18;;;;;;;210.60;44.03;;;2.70;99.90;;;;;;5038679;28;20049;-85
2022/01/16 05:19:54;;;;;;;209.68;40.03;;;2.70;99.90;;;;;;5005076;28;68567;-84
2022/01/16 05:22:24;;;;;;;191.52;42.42;;;2.70;99.90;;;;;;5035373;28;20128;-85
2022/01/16 05:24:51;;;;;;;203.45;42.63;;;2.80;99.90;;;;;;4999473;28;214606;-85
2022/01/16 05:27:28;;;;;;;203.45;44.80;;;2.80;99.90;;;;;;5028462;28;20057;-84
2022/01/16 05:29:56;;;;;;;191.10;41.08;;;2.80;99.90;;;;;;4993416;28;192083;-85
2022/01/16 05:32:23;;;;;;;224.85;44.67;;;2.80;99.90;;;;;;5003957;28;20045;-84
2022/01/16 05:34:49;;;;;;;213.27;44.63;;;2.90;99.90;;;;;;4962471;28;209007;-85
2022/01/16 05:37:23;;;;;;;195.60;41.28;;;2.80;99.90;;;;;;4965108;28;20572;-84
2022/01/16 05:39:55;;;;;;;199.73;42.75;;;2.90;99.90;;;;;;4648652;28;9003426;-84
2022/01/16 05:42:47;;;;;;;209.18;42.33;;;2.90;99.90;;;;;;4939253;29;20636;-84
2022/01/16 05:45:13;;;;;;;212.13;45.47;;;3.00;99.90;;;;;;4821998;28;3047055;-84
2022/01/16 05:47:43;;;;;;;216.23;46.47;;;3.00;99.90;;;;;;4948393;28;20048;-84
2022/01/16 05:50:17;;;;;;;186.77;42.92;;;3.00;99.90;;;;;;4892325;28;318626;-84
2022/01/16 05:52:49;;;;;;;214.15;46.45;;;3.00;99.90;;;;;;4944764;28;20043;-84
2022/01/16 05:55:16;;;;;;;194.15;44.80;;;2.90;99.90;;;;;;4921070;28;199403;-84
2022/01/16 05:57:46;;;;;;;224.95;47.40;;;3.00;99.90;;;;;;4934620;29;20055;-83
2022/01/16 06:00:16;;;;;;;191.27;42.67;;;3.00;99.90;;;;;;4617963;28;8999267;-83
2022/01/16 06:02:52;;;;;;;174.82;41.05;;;3.10;99.90;;;;;;4905280;28;20058;-84
2022/01/16 06:05:18;;;;;;;183.75;44.75;;;3.10;99.90;;;;;;4909538;28;59780;-83
2022/01/16 06:07:53;;;;;;;178.05;44.17;;;3.10;99.90;;;;;;4917050;29;20056;-83
2022/01/16 06:10:22;;;;;;;167.98;40.15;;;3.10;99.90;;;;;;4898542;29;123416;-84
2022/01/16 06:12:51;;;;;;;199.48;47.13;;;3.20;99.90;;;;;;4945012;28;20050;-84
2022/01/16 06:15:29;;;;;;;194.57;47.03;;;3.20;99.90;;;;;;4945628;28;57932;-83
2022/01/16 06:18:02;;;;;;;214.63;47.90;;;3.20;99.90;;;;;;4957037;28;20066;-84
2022/01/16 06:20:32;;;;;;;182.82;42.80;;;3.20;99.90;;;;;;4831478;28;3050792;-83
2022/01/16 06:23:01;;;;;;;190.15;44.28;;;3.30;99.90;;;;;;4957528;28;20054;-83
2022/01/16 06:25:28;;;;;;;213.98;48.08;;;3.20;99.90;;;;;;4931829;28;223050;-84
2022/01/16 06:27:54;;;;;;;173.45;40.40;;;3.30;99.90;;;;;;4957657;28;20034;-82
2022/01/16 06:30:26;;;;;;;191.65;45.75;;;3.40;99.90;;;;;;4869748;28;2994407;-84
2022/01/16 06:32:55;;;;;;;185.13;43.20;;;3.40;99.90;;;;;;4954803;28;20038;-84
2022/01/16 06:35:24;;;;;;;181.25;42.75;;;3.30;99.90;;;;;;4962293;28;65044;-83
2022/01/16 06:37:51;;;;;;;192.80;44.90;;;3.40;99.90;;;;;;4977434;28;20065;-83
2022/01/16 06:40:17;;;;;;;179.40;42.65;;;3.40;99.90;;;;;;4939078;28;278746;-83
2022/01/16 06:42:43;;;;;;;159.10;40.80;;;3.40;99.90;;;;;;4969342;28;20066;-83
2022/01/16 06:45:14;;;;;;;196.38;45.75;;;3.40;99.90;;;;;;4984758;28;96120;-84
2022/01/16 06:47:40;;;;;;;171.23;43.67;;;3.50;99.90;;;;;;5030589;28;20053;-84
2022/01/16 06:50:08;;;;;;;202.70;48.03;;;3.50;99.90;;;;;;4983856;28;304759;-84
2022/01/16 06:52:37;;;;;;;197.25;46.22;;;3.50;99.90;;;;;;5006426;28;20380;-83
2022/01/16 06:55:19;;;;;;;180.10;45.40;;;3.60;99.90;;;;;;5000502;28;45340;-84
2022/01/16 06:57:48;;;;;;;190.77;45.90;;;3.60;99.90;;;;;;5025368;28;20125;-83
2022/01/16 07:00:14;;;;;;;178.60;44.78;;;3.60;99.90;;;;;;4992389;28;239659;-83
2022/01/16 07:02:41;;;;;;;180.57;47.80;;;3.60;99.90;;;;;;5029486;28;20045;-83
2022/01/16 07:05:10;;;;;;;186.80;45.88;;;3.70;99.90;;;;;;4987676;28;123911;-83
2022/01/16 07:07:45;;;;;;;193.55;46.58;;;3.60;99.90;;;;;;5027878;28;20049;-84
2022/01/16 07:10:20;;;;;;;184.23;46.38;;;3.70;99.90;;;;;;5010947;28;285467;-84
2022/01/16 07:12:50;;;;;;;190.13;47.13;;;3.70;99.90;;;;;;5009332;28;20521;-83
2022/01/16 07:15:17;;;;;;;189.52;45.85;;;3.70;99.90;;;;;;4898705;28;2992652;-85
2022/01/16 07:17:54;;;;;;;172.55;42.50;;;3.80;99.90;;;;;;5028180;28;20061;-84
2022/01/16 07:20:20;;;;;;;173.45;45.42;;;3.80;99.90;;;;;;4993607;28;50900;-84
2022/01/16 07:22:47;;;;;;;200.82;49.88;;;3.80;99.90;;;;;;5024294;28;20060;-84
2022/01/16 07:25:17;;;;;;;186.80;48.08;;;3.90;99.90;;;;;;5004033;28;95822;-84
2022/01/16 07:27:43;;;;;;;192.68;46.40;;;3.90;99.90;;;;;;5033122;28;20064;-84
2022/01/16 07:30:10;;;;;;;191.23;48.17;;;3.90;99.90;;;;;;5009272;28;160524;-85
2022/01/16 07:32:39;;;;;;;190.90;48.58;;;3.90;99.90;;;;;;4991407;28;20054;-84
2022/01/16 07:35:20;;;;;;;183.85;46.20;;;3.90;99.90;;;;;;4958722;28;199609;-84
2022/01/16 07:37:49;;;;;;;180.60;45.13;;;3.90;99.90;;;;;;4956798;28;20063;-84
2022/01/16 07:40:21;;;;;;;177.18;47.08;;;4.00;99.90;;;;;;4948119;28;191120;-84
2022/01/16 07:43:01;;;;;;;;;;;;;;;;;;;;;
2022/01/16 07:45:30;;;;;;;171.67;49.70;;;4.00;99.90;;;;;;4636748;28;10002861;-85
2022/01/16 07:47:56;;;;;;;192.02;49.40;;;4.00;99.90;;;;;;4962046;28;20050;-85
2022/01/16 07:50:23;;;;;;;181.95;49.75;;;4.00;99.90;;;;;;4971039;28;159616;-85
2022/01/16 07:52:50;;;;;;;169.10;48.10;;;4.10;99.90;;;;;;4956632;28;20042;-86
2022/01/16 07:55:18;;;;;;;176.60;50.88;;;4.10;99.90;;;;;;4847480;28;2991881;-85
2022/01/16 07:57:46;;;;;;;179.07;50.55;;;4.10;99.90;;;;;;4968632;28;20046;-84
2022/01/16 08:00:15;;;;;;;169.10;47.70;;;4.10;99.90;;;;;;4971753;28;279005;-84
2022/01/16 08:02:42;;;;;;;165.48;49.65;;;4.20;99.90;;;;;;4960935;28;20050;-85
2022/01/16 08:05:12;;;;;;;168.27;47.73;;;4.20;99.90;;;;;;4649151;28;10002871;-85
2022/01/16 08:07:50;;;;;;;165.32;47.08;;;4.30;99.90;;;;;;5012090;28;20057;-86
2022/01/16 08:10:28;;;;;;;169.38;48.03;;;4.30;99.90;;;;;;5001625;28;151736;-85
2022/01/16 08:12:58;;;;;;;168.95;50.50;;;4.40;99.90;;;;;;5020051;28;20057;-85
2022/01/16 08:15:27;;;;;;;164.48;49.88;;;4.40;99.90;;;;;;5030750;28;70486;-82
2022/01/16 08:17:53;;;;;;;152.98;50.28;;;4.40;99.90;;;;;;5038628;28;20064;-81
2022/01/16 08:20:20;;;;;;;148.93;48.33;;;4.50;99.90;;;;;;5040314;28;216112;-83
2022/01/16 08:23:04;;;;;;;134.70;45.22;;;4.50;99.90;;;;;;5035247;28;20066;-84
2022/01/16 08:25:47;;;;;;;148.70;49.05;;;4.50;99.90;;;;;;4958312;28;165416;-83
2022/01/16 08:28:38;;;;;;;140.52;47.22;;;4.60;99.90;;;;;;4986706;28;20070;-83
2022/01/16 08:31:14;;;;;;;139.00;48.40;;;4.70;99.90;;;;;;4924490;28;20046;-83
2022/01/16 08:33:52;;;;;;;129.07;47.63;;;4.70;99.90;;;;;;4973100;28;162856;-83
2022/01/16 08:36:25;;;;;;;125.68;44.97;;;4.80;99.90;;;;;;4975410;28;20519;-83
2022/01/16 08:39:00;;;;;;;119.43;46.45;;;4.80;99.90;;;;;;4962334;28;149550;-83
2022/01/16 08:41:32;;;;;;;115.68;46.95;;;4.90;99.90;;;;;;4953670;28;20051;-84
2022/01/16 08:44:07;;;;;;;111.10;42.95;;;4.80;99.90;;;;;;4955481;28;192705;-84
2022/01/16 08:46:45;;;;;;;103.00;43.42;;;4.90;99.90;;;;;;4966700;28;20059;-84
2022/01/16 08:52:44;;;;;;;;;;;4.90;99.90;;;;;;4916052;29;20052;-84
2022/01/16 08:55:11;;;;;;;102.70;42.63;;;5.00;99.90;;;;;;4876603;29;36065;-83
2022/01/16 08:57:38;;;;;;;102.15;44.63;;;5.00;99.90;;;;;;4890080;29;20082;-82
2022/01/16 09:00:06;;;;;;;106.97;43.42;;;5.10;99.90;;;;;;5008036;23;184946;-73
2022/01/16 09:02:32;;;;;;;103.45;42.83;;;5.10;99.90;;;;;;5063864;28;20048;-72
2022/01/16 09:04:58;;;;;;;93.32;41.28;;;5.20;99.90;;;;;;5033699;28;256794;-71
2022/01/16 09:07:24;;;;;;;92.18;40.22;;;5.20;99.90;;;;;;5045586;28;20056;-72
2022/01/16 09:09:50;;;;;;;92.68;40.97;;;5.30;99.90;;;;;;5042848;28;194217;-72
2022/01/16 09:12:16;;;;;;;88.18;39.33;;;5.30;99.90;;;;;;5087224;22;20381;-68
2022/01/16 09:14:42;;;;;;;84.68;37.15;;;5.40;99.90;;;;;;5014781;28;161964;-69
2022/01/16 09:17:08;;;;;;;78.53;38.40;;;5.40;99.90;;;;;;5052078;28;20052;-70
2022/01/16 09:19:35;;;;;;;76.95;36.58;;;5.40;99.90;;;;;;5033524;28;255642;-70
2022/01/16 09:22:01;;;;;;;79.65;37.22;;;5.40;99.90;;;;;;5050852;28;20053;-69
2022/01/16 09:24:28;;;;;;;76.03;37.40;;;5.50;99.90;;;;;;5030926;28;94213;-69
2022/01/16 09:26:56;;;;;;;67.78;35.40;;;5.50;99.90;;;;;;5051727;28;20057;-69
2022/01/16 09:29:22;;;;;;;76.55;35.88;;;5.60;99.90;;;;;;5027035;28;263494;-69
2022/01/16 09:31:48;;;;;;;64.63;34.78;;;5.60;99.90;;;;;;5034584;28;20056;-69
2022/01/16 09:34:14;;;;;;;64.38;33.40;;;5.60;99.90;;;;;;5022270;28;257441;-69
2022/01/16 09:36:40;;;;;;;68.30;34.53;;;5.70;99.90;;;;;;5028728;28;20064;-69
2022/01/16 09:39:06;;;;;;;65.10;33.47;;;5.70;99.90;;;;;;5025694;28;272308;-69
2022/01/16 09:41:33;;;;;;;57.17;32.13;;;5.70;99.90;;;;;;5052836;28;20053;-69
2022/01/16 09:44:00;;;;;;;56.70;31.48;;;5.80;99.90;;;;;;5027859;28;261961;-69
2022/01/16 09:46:26;;;;;;;61.13;32.60;;;5.80;99.90;;;;;;5053989;28;20061;-69
2022/01/16 09:48:53;;;;;;;52.73;30.97;;;5.80;99.90;;;;;;5024800;28;263600;-69
2022/01/16 09:51:19;;;;;;;55.78;32.00;;;5.90;99.90;;;;;;5053046;28;20120;-70
2022/01/16 09:53:46;;;;;;;55.25;31.15;;;5.90;99.90;;;;;;5022446;28;272763;-69
2022/01/16 09:56:13;;;;;;;47.05;28.83;;;6.00;99.90;;;;;;5035670;28;20412;-69
2022/01/16 09:58:41;;;;;;;54.25;29.23;;;6.00;99.90;;;;;;5019030;28;270471;-69
2022/01/16 10:01:07;;;;;;;54.75;29.15;;;6.00;99.90;;;;;;5041814;28;20053;-70
2022/01/16 10:03:38;;;;;;;49.17;29.27;;;6.10;99.90;;;;;;5040427;28;20552;-70
2022/01/16 10:06:21;;;;;;;45.88;27.42;;;6.10;99.90;;;;;;5015983;28;108254;-69
2022/01/16 10:08:54;;;;;;;45.05;27.05;;;6.10;99.90;;;;;;5018943;28;256953;-70
2022/01/16 10:11:30;;;;;;;47.85;26.52;;;6.20;99.90;;;;;;5050381;28;20053;-70
2022/01/16 10:14:08;;;;;;;46.60;27.00;;;6.20;99.90;;;;;;5019346;28;273554;-69
2022/01/16 10:16:40;;;;;;;48.45;27.25;;;6.20;99.90;;;;;;5047386;28;20075;-70
2022/01/16 10:19:27;;;;;;;46.97;26.95;;;6.30;99.90;;;;;;5031922;28;111679;-69
2022/01/16 10:22:00;;;;;;;44.55;26.10;;;6.30;99.90;;;;;;5055040;28;20067;-70
2022/01/16 10:24:29;;;;;;;43.33;26.23;;;6.30;99.90;;;;;;5035479;28;263902;-69
2022/01/16 10:27:22;;;;;;;48.15;26.13;;;6.30;99.90;;;;;;5047119;28;20049;-69
2022/01/16 10:29:51;;;;;;;44.30;23.52;;;6.30;99.90;;;;;;5029584;28;255640;-69
2022/01/16 10:32:25;;;;;;;41.10;24.33;;;6.40;99.90;;;;;;5041445;28;20077;-70
2022/01/16 10:34:54;;;;;;;43.10;23.85;;;6.40;99.90;;;;;;5034618;28;274271;-70
2022/01/16 10:37:21;;;;;;;55.10;28.15;;;6.40;99.90;;;;;;5059453;28;20057;-71
2022/01/16 10:39:59;;;;;;;54.55;29.48;;;6.40;99.90;;;;;;5031998;28;70064;-70
2022/01/16 10:42:27;;;;;;;60.78;28.45;;;6.40;99.90;;;;;;5047604;28;20048;-71
2022/01/16 10:45:06;;;;;;;56.72;28.73;;;6.30;99.90;;;;;;5030893;28;272700;-70
2022/01/16 10:47:51;;;;;;;46.28;26.42;;;6.30;99.90;;;;;;5045255;28;20413;-70
2022/01/16 10:50:25;;;;;;;45.83;24.98;;;6.30;99.90;;;;;;5031913;28;258976;-70
2022/01/16 10:53:15;;;;;;;47.05;23.70;;;6.30;99.90;;;;;;5039755;28;20533;-70
2022/01/16 10:55:51;;;;;;;43.85;22.25;;;6.30;99.90;;;;;;5021192;28;161606;-70
2022/01/16 10:58:21;;;;;;;35.90;21.42;;;6.40;99.90;;;;;;5038569;28;20057;-70
2022/01/16 11:00:56;;;;;;;39.08;22.23;;;6.40;99.90;;;;;;5020372;28;254466;-70
2022/01/16 11:03:23;;;;;;;46.60;19.45;;;6.40;99.90;;;;;;5041293;28;20029;-70
2022/01/16 11:05:51;;;;;;;34.47;19.70;;;6.40;99.90;;;;;;5020757;28;97949;-70
2022/01/16 11:08:19;;;;;;;37.75;19.48;;;6.50;99.90;;;;;;5045134;28;20053;-70
2022/01/16 11:10:48;;;;;;;34.17;19.73;;;6.50;99.90;;;;;;5028502;28;261705;-70
2022/01/16 11:13:16;;;;;;;38.70;18.05;;;6.50;99.90;;;;;;5045347;28;20065;-71
2022/01/16 11:15:51;;;;;;;34.50;17.48;;;6.50;99.90;;;;;;5032973;28;67915;-70
2022/01/16 11:18:19;;;;;;;39.45;17.00;;;6.60;99.90;;;;;;5047491;28;20052;-70
2022/01/16 11:20:56;;;;;;;30.90;16.95;;;6.60;99.90;;;;;;5041539;28;272914;-70
2022/01/16 11:25:56;;;;;;;36.33;15.55;;;6.60;99.90;;;;;;5025108;28;256618;-70
2022/01/16 11:28:23;;;;;;;27.65;13.48;;;6.60;99.90;;;;;;5046586;28;20061;-70
2022/01/16 11:30:52;;;;;;;31.95;15.35;;;6.60;99.90;;;;;;5031110;28;141542;-71
2022/01/16 11:33:20;;;;;;;28.80;13.15;;;6.60;99.90;;;;;;5046486;28;20059;-71
2022/01/16 11:35:59;;;;;;;30.05;12.98;;;6.60;99.90;;;;;;5025971;28;184706;-71
2022/01/16 11:38:40;;;;;;;27.23;11.57;;;6.60;99.90;;;;;;5042549;28;20051;-70
2022/01/16 11:41:23;;;;;;;30.02;12.10;;;6.70;99.90;;;;;;5017306;28;20041;-70
2022/01/16 11:43:54;;;;;;;31.70;12.00;;;6.70;99.90;;;;;;5027818;28;256304;-70
2022/01/16 11:46:21;;;;;;;34.42;11.13;;;6.70;99.90;;;;;;5058561;28;20057;-71
2022/01/16 11:49:01;;;;;;;28.63;10.75;;;6.70;99.90;;;;;;5022704;28;267101;-70
2022/01/16 11:51:38;;;;;;;25.30;9.52;;;6.70;99.90;;;;;;5028912;28;20045;-70
2022/01/16 11:54:28;;;;;;;25.88;10.50;;;6.80;99.90;;;;;;5036222;28;236015;-70
2022/01/16 11:56:59;;;;;;;26.98;10.30;;;6.80;99.90;;;;;;5034079;28;20052;-70
2022/01/16 11:59:35;;;;;;;26.15;9.95;;;6.70;99.90;;;;;;5034205;28;234220;-70
2022/01/16 12:02:08;;;;;;;26.02;9.75;;;6.80;99.90;;;;;;5054148;28;20505;-70
2022/01/16 12:04:34;;;;;;;24.60;9.55;;;6.80;99.90;;;;;;5020764;28;257977;-70
2022/01/16 12:07:00;;;;;;;25.52;9.68;;;6.80;99.90;;;;;;5044572;28;20064;-70
2022/01/16 12:12:13;;;;;;;26.13;10.00;;;6.90;99.90;;;;;;5048546;28;20052;-71
2022/01/16 12:15:00;;;;;;;26.05;9.73;;;6.80;99.90;;;;;;5024236;28;145217;-70
2022/01/16 12:17:30;;;;;;;28.83;9.10;;;6.90;99.90;;;;;;5040294;28;20633;-70
2022/01/16 12:20:25;;;;;;;25.08;9.35;;;6.90;99.90;;;;;;5024940;28;271505;-70
2022/01/16 12:22:58;;;;;;;26.35;9.85;;;6.90;99.90;;;;;;5036992;28;20053;-70
2022/01/16 12:26:01;;;;;;;23.73;8.77;;;6.90;99.90;;;;;;5039529;28;265088;-70
2022/01/16 12:28:28;;;;;;;22.13;8.90;;;6.90;99.90;;;;;;5001904;28;20050;-70
2022/01/16 12:30:59;;;;;;;20.52;8.35;;;7.00;99.90;;;;;;4965272;28;25146;-71
2022/01/16 12:33:38;;;;;;;20.95;8.52;;;7.00;99.90;;;;;;4971220;28;20058;-70
2022/01/16 12:36:09;;;;;;;20.92;8.25;;;7.00;99.90;;;;;;4996264;28;20078;-70
2022/01/16 12:38:50;;;;;;;24.50;9.17;;;7.00;99.90;;;;;;4991172;28;20058;-70
2022/01/16 12:41:23;;;;;;;23.90;8.65;;;7.00;99.90;;;;;;4981238;28;20550;-70
2022/01/16 12:43:53;;;;;;;22.17;8.80;;;7.00;99.90;;;;;;4976508;28;60182;-70
2022/01/16 12:46:26;;;;;;;21.77;7.78;;;7.00;99.90;;;;;;4990481;28;20109;-70
2022/01/16 12:48:53;;;;;;;18.42;7.50;;;7.00;99.90;;;;;;4973417;28;148079;-70
2022/01/16 12:51:24;;;;;;;23.88;8.50;;;7.00;99.90;;;;;;4991034;28;20054;-70
2022/01/16 12:53:53;;;;;;;22.65;8.63;;;7.00;99.90;;;;;;4960163;28;99516;-71
2022/01/16 12:56:27;;;;;;;26.35;8.27;;;7.00;99.90;;;;;;5006936;28;20533;-71
2022/01/16 12:59:13;;;;;;;18.60;8.07;;;7.00;99.90;;;;;;4985483;28;276229;-70
2022/01/16 13:01:46;;;;;;;24.05;8.43;;;7.10;99.90;;;;;;4989013;28;20046;-70
2022/01/16 13:04:29;;;;;;;21.67;8.13;;;7.00;99.90;;;;;;4964073;28;230248;-71
2022/01/16 13:07:07;;;;;;;18.75;8.07;;;7.10;99.90;;;;;;5031378;28;20055;-71
2022/01/16 13:09:33;;;;;;;23.02;8.80;;;7.00;99.90;;;;;;5034199;28;81428;-71
2022/01/16 13:12:00;;;;;;;20.27;7.72;;;7.00;99.90;;;;;;5053642;28;20044;-71
2022/01/16 13:14:33;;;;;;;19.52;8.23;;;7.00;99.90;;;;;;5036646;28;66429;-71
2022/01/16 13:17:03;;;;;;;23.73;8.02;;;7.00;99.90;;;;;;5045744;28;20049;-71
2022/01/16 13:19:39;;;;;;;22.70;8.80;;;7.00;99.90;;;;;;5027452;28;187459;-71
2022/01/16 13:22:16;;;;;;;18.08;7.78;;;7.10;99.90;;;;;;5024183;28;20044;-70
2022/01/16 13:25:00;;;;;;;25.20;9.25;;;7.10;99.90;;;;;;5014197;28;173403;-71
2022/01/16 13:27:32;;;;;;;21.15;8.30;;;7.00;99.90;;;;;;5026862;28;20071;-71
2022/01/16 13:30:05;;;;;;;27.83;9.13;;;7.10;99.90;;;;;;5034460;28;36865;-71
2022/01/16 13:32:36;;;;;;;17.92;7.75;;;7.00;99.90;;;;;;5047010;28;20556;-71
2022/01/16 13:35:24;;;;;;;23.48;8.63;;;7.10;99.90;;;;;;5033923;28;265332;-71
2022/01/16 13:37:54;;;;;;;20.33;8.05;;;7.10;99.90;;;;;;5038753;28;20046;-71
2022/01/16 13:40:26;;;;;;;20.42;8.55;;;7.10;99.90;;;;;;5030475;28;104343;-71
2022/01/16 13:43:02;;;;;;;23.25;8.65;;;7.10;99.90;;;;;;5040294;28;20064;-71
2022/01/16 13:45:41;;;;;;;26.75;8.82;;;7.10;99.90;;;;;;5021853;28;263989;-70
2022/01/16 13:48:10;;;;;;;24.40;8.35;;;7.10;99.90;;;;;;5043064;28;20068;-71